createdAt,value
2023-04-15T00:01:28.329Z,78.88
2023-04-15T00:03:56.156Z,79.05
2023-04-15T00:06:23.440Z,79.03
2023-04-15T00:08:51.065Z,78.85
2023-04-15T00:11:18.621Z,78.59
2023-04-15T00:13:45.975Z,78.61
2023-04-15T00:16:13.275Z,78.53
2023-04-15T00:18:40.402Z,78.83
2023-04-15T00:21:07.560Z,78.59
2023-04-15T00:23:34.490Z,78.66
2023-04-15T00:26:01.917Z,78.37
2023-04-15T00:28:28.993Z,78.19
2023-04-15T00:30:56.003Z,78.18
2023-04-15T00:33:22.996Z,78.01
2023-04-15T00:35:50.033Z,77.89
2023-04-15T00:38:16.950Z,78.12
2023-04-15T00:40:44.200Z,77.89
2023-04-15T00:43:11.270Z,77.99
2023-04-15T00:45:38.842Z,78.15
2023-04-15T00:48:06.371Z,78.11
2023-04-15T00:50:34.033Z,78.01
2023-04-15T00:53:01.481Z,77.83
2023-04-15T00:55:28.754Z,77.71
2023-04-15T00:57:57.982Z,77.49
2023-04-15T01:00:25.476Z,77.61
2023-04-15T01:02:52.733Z,77.24
2023-04-15T01:05:19.966Z,77.42
2023-04-15T01:07:48.954Z,77.71
2023-04-15T01:10:16.252Z,77.54
2023-04-15T01:12:43.657Z,77.31
2023-04-15T01:15:11.396Z,77.34
2023-04-15T01:17:39.624Z,77.65
2023-04-15T01:20:10.304Z,77.56
2023-04-15T01:22:37.379Z,77.69
2023-04-15T01:25:13.681Z,77.56
2023-04-15T01:27:42.671Z,77.74
2023-04-15T01:30:10.911Z,78.01
2023-04-15T01:32:38.506Z,78.01
2023-04-15T01:35:06.040Z,78.13
2023-04-15T01:37:33.466Z,78.09
2023-04-15T01:40:00.522Z,78.09
2023-04-15T01:42:28.200Z,78.07
2023-04-15T01:44:55.127Z,78.34
2023-04-15T01:47:22.164Z,78.12
2023-04-15T01:49:49.206Z,78.47
2023-04-15T01:52:16.059Z,78.68
2023-04-15T01:54:43.014Z,78.96
2023-04-15T01:57:10.341Z,79.15
2023-04-15T01:59:37.599Z,78.85
2023-04-15T02:02:05.928Z,78.82
2023-04-15T02:04:33.018Z,79.04
2023-04-15T02:07:00.287Z,79.04
2023-04-15T02:09:27.112Z,79.46
2023-04-15T02:11:54.685Z,79.67
2023-04-15T02:14:21.935Z,79.25
2023-04-15T02:16:48.808Z,79.41
2023-04-15T02:19:15.805Z,79.50
2023-04-15T02:21:42.655Z,79.52
2023-04-15T02:24:09.708Z,79.77
2023-04-15T02:26:36.523Z,79.30
2023-04-15T02:29:04.694Z,79.04
2023-04-15T02:31:34.387Z,78.67
2023-04-15T02:34:03.300Z,78.28
2023-04-15T02:36:32.014Z,78.09
2023-04-15T02:38:59.256Z,77.78
2023-04-15T02:41:28.660Z,77.71
2023-04-15T02:43:55.525Z,77.75
2023-04-15T02:46:23.329Z,77.87
2023-04-15T02:48:51.237Z,77.96
2023-04-15T02:51:20.598Z,78.57
2023-04-15T02:53:48.893Z,79.01
2023-04-15T02:56:17.557Z,79.38
2023-04-15T02:58:45.527Z,79.53
2023-04-15T03:01:12.478Z,80.28
2023-04-15T03:03:39.371Z,80.21
2023-04-15T03:06:07.268Z,80.33
2023-04-15T03:08:34.229Z,80.70
2023-04-15T03:11:02.906Z,81.05
2023-04-15T03:13:29.730Z,81.09
2023-04-15T03:15:56.638Z,81.98
2023-04-15T03:18:23.972Z,81.71
2023-04-15T03:20:50.977Z,81.65
2023-04-15T03:23:18.022Z,81.70
2023-04-15T03:25:45.581Z,81.83
2023-04-15T03:28:12.731Z,81.90
2023-04-15T03:30:39.668Z,81.92
2023-04-15T03:33:06.502Z,82.46
2023-04-15T03:35:33.348Z,82.74
2023-04-15T03:38:00.189Z,82.67
2023-04-15T03:40:27.457Z,82.89
2023-04-15T03:42:54.388Z,82.76
2023-04-15T03:45:21.524Z,82.90
2023-04-15T03:47:48.392Z,82.91
2023-04-15T03:50:15.952Z,83.17
2023-04-15T03:52:42.781Z,83.23
2023-04-15T03:55:10.216Z,83.18
2023-04-15T03:57:39.465Z,83.27
2023-04-15T04:00:12.257Z,83.74
2023-04-15T04:02:39.372Z,83.65
2023-04-15T04:05:06.700Z,83.70
2023-04-15T04:07:33.763Z,83.40
2023-04-15T04:10:00.690Z,83.66
2023-04-15T04:12:27.630Z,84.24
2023-04-15T04:14:54.558Z,84.85
2023-04-15T04:17:21.442Z,85.42
2023-04-15T04:19:48.348Z,85.74
2023-04-15T04:22:15.194Z,85.82
2023-04-15T04:24:42.149Z,86.02
2023-04-15T04:27:09.078Z,86.15
2023-04-15T04:29:36.419Z,86.19
2023-04-15T04:32:03.331Z,86.19
2023-04-15T04:34:30.518Z,86.26
2023-04-15T04:36:57.362Z,86.26
2023-04-15T04:39:24.295Z,86.30
2023-04-15T04:41:52.740Z,86.03
2023-04-15T04:44:19.612Z,86.19
2023-04-15T04:46:46.566Z,86.21
2023-04-15T04:49:13.367Z,86.62
2023-04-15T04:51:40.246Z,86.54
2023-04-15T04:54:07.499Z,86.46
2023-04-15T04:56:35.052Z,86.04
2023-04-15T04:59:02.368Z,86.57
2023-04-15T05:01:29.641Z,87.08
2023-04-15T05:03:56.821Z,87.36
2023-04-15T05:06:23.949Z,87.55
2023-04-15T05:08:50.909Z,87.53
2023-04-15T05:11:18.030Z,87.17
2023-04-15T05:13:45.314Z,86.93
2023-04-15T05:16:12.819Z,86.99
2023-04-15T05:18:41.275Z,86.83
2023-04-15T05:21:08.585Z,86.64
2023-04-15T05:23:35.828Z,86.91
2023-04-15T05:26:02.989Z,86.37
2023-04-15T05:28:30.229Z,86.68
2023-04-15T05:30:57.612Z,87.07
2023-04-15T05:33:24.756Z,87.13
2023-04-15T05:35:52.175Z,87.45
2023-04-15T05:38:19.543Z,87.98
2023-04-15T05:40:46.985Z,88.07
2023-04-15T05:43:13.934Z,87.78
2023-04-15T05:45:40.770Z,87.83
2023-04-15T05:48:08.019Z,86.40
2023-04-15T05:50:34.976Z,86.41
2023-04-15T05:53:02.775Z,86.73
2023-04-15T05:55:29.772Z,86.21
2023-04-15T05:57:56.919Z,85.50
2023-04-15T06:00:23.750Z,84.54
2023-04-15T06:02:51.062Z,84.25
2023-04-15T06:05:18.573Z,84.10
2023-04-15T06:07:47.330Z,83.89
2023-04-15T06:10:15.832Z,83.18
2023-04-15T06:12:42.657Z,82.04
2023-04-15T06:15:13.194Z,82.15
2023-04-15T06:17:40.332Z,81.86
2023-04-15T06:20:08.950Z,80.88
2023-04-15T06:22:38.546Z,80.37
2023-04-15T06:25:08.406Z,81.38
2023-04-15T06:27:35.280Z,80.83
2023-04-15T06:30:02.231Z,78.19
2023-04-15T06:32:29.210Z,77.32
2023-04-15T06:34:57.029Z,77.55
2023-04-15T06:37:26.382Z,76.63
2023-04-15T06:39:55.225Z,76.72
2023-04-15T06:42:24.201Z,76.64
2023-04-15T06:44:51.508Z,75.55
2023-04-15T06:47:18.652Z,73.70
2023-04-15T06:49:45.746Z,71.76
2023-04-15T06:52:13.408Z,68.80
2023-04-15T06:54:41.822Z,68.38
2023-04-15T06:57:12.321Z,67.56
2023-04-15T06:59:42.120Z,66.91
2023-04-15T07:02:12.810Z,65.22
2023-04-15T07:04:40.956Z,67.61
2023-04-15T07:07:08.407Z,67.65
2023-04-15T07:09:35.645Z,66.57
2023-04-15T07:12:02.676Z,64.16
2023-04-15T07:14:30.041Z,63.40
2023-04-15T07:16:58.052Z,62.68
2023-04-15T07:19:25.027Z,59.07
2023-04-15T07:21:52.021Z,62.18
2023-04-15T07:24:20.459Z,61.59
2023-04-15T07:26:47.599Z,59.71
2023-04-15T07:29:14.886Z,56.63
2023-04-15T07:31:42.611Z,55.98
2023-04-15T07:34:09.568Z,56.99
2023-04-15T07:36:37.288Z,56.05
2023-04-15T07:39:05.013Z,55.12
2023-04-15T07:41:32.327Z,55.43
2023-04-15T07:43:59.910Z,56.15
2023-04-15T07:46:27.817Z,57.29
2023-04-15T07:48:54.798Z,54.33
2023-04-15T07:51:21.945Z,55.19
2023-04-15T07:53:50.816Z,50.86
2023-04-15T07:56:18.412Z,53.25
2023-04-15T07:58:45.338Z,52.24
2023-04-15T08:01:12.988Z,50.80
2023-04-15T08:03:40.147Z,51.92
2023-04-15T08:06:07.399Z,50.35
2023-04-15T08:08:34.441Z,50.30
2023-04-15T08:11:01.693Z,50.99
2023-04-15T08:13:29.170Z,49.33
2023-04-15T08:16:19.172Z,50.32
2023-04-15T08:18:50.087Z,50.26
2023-04-15T08:21:19.010Z,50.56
2023-04-15T08:23:47.936Z,48.18
2023-04-15T08:26:14.886Z,50.71
2023-04-15T08:28:43.193Z,49.63
2023-04-15T08:31:10.865Z,49.16
2023-04-15T08:33:37.892Z,49.64
2023-04-15T08:36:06.337Z,46.58
2023-04-15T08:38:33.807Z,45.10
2023-04-15T08:41:07.736Z,46.43
2023-04-15T08:43:37.148Z,46.27
2023-04-15T08:46:05.831Z,45.15
2023-04-15T08:48:39.501Z,45.35
2023-04-15T08:51:08.071Z,45.49
2023-04-15T08:53:35.836Z,45.63
2023-04-15T08:56:06.186Z,46.01
2023-04-15T08:58:34.048Z,43.23
2023-04-15T09:01:02.116Z,42.41
2023-04-15T09:03:29.519Z,42.92
2023-04-15T09:05:57.820Z,41.24
2023-04-15T09:08:25.117Z,42.38
2023-04-15T09:10:52.513Z,42.12
2023-04-15T09:13:19.688Z,41.90
2023-04-15T09:15:47.025Z,39.55
2023-04-15T09:18:27.091Z,40.60
2023-04-15T09:20:54.312Z,41.27
2023-04-15T09:23:21.492Z,40.73
2023-04-15T09:25:49.977Z,39.92
2023-04-15T09:28:26.026Z,38.37
2023-04-15T09:30:58.026Z,37.64
2023-04-15T09:33:27.461Z,39.13
2023-04-15T09:36:05.853Z,38.92
2023-04-15T09:38:34.244Z,40.21
2023-04-15T09:41:01.532Z,38.07
2023-04-15T09:43:42.171Z,36.91
2023-04-15T09:46:09.010Z,38.55
2023-04-15T09:48:37.206Z,37.26
2023-04-15T09:51:04.532Z,35.85
2023-04-15T09:53:34.501Z,36.37
2023-04-15T09:56:02.854Z,33.99
2023-04-15T09:58:32.057Z,36.50
2023-04-15T10:01:00.730Z,35.62
2023-04-15T10:03:34.828Z,34.45
2023-04-15T10:06:05.878Z,35.40
2023-04-15T10:08:35.180Z,34.57
2023-04-15T10:11:02.803Z,35.09
2023-04-15T10:13:35.812Z,34.73
2023-04-15T10:16:15.977Z,34.38
2023-04-15T10:18:48.544Z,34.72
2023-04-15T10:21:18.996Z,35.26
2023-04-15T10:23:47.955Z,35.12
2023-04-15T10:26:17.792Z,34.12
2023-04-15T10:28:47.577Z,34.78
2023-04-15T10:31:16.237Z,35.56
2023-04-15T10:33:46.288Z,37.30
2023-04-15T10:36:14.451Z,36.68
2023-04-15T10:38:46.965Z,37.40
2023-04-15T10:41:14.953Z,37.34
2023-04-15T10:43:51.807Z,36.76
2023-04-15T10:46:44.508Z,37.18
2023-04-15T10:49:17.365Z,37.47
2023-04-15T10:51:53.684Z,37.38
2023-04-15T10:54:27.059Z,37.08
2023-04-15T10:57:09.220Z,37.48
2023-04-15T11:00:05.498Z,37.80
2023-04-15T11:02:49.241Z,37.52
2023-04-15T11:05:18.405Z,39.08
2023-04-15T11:07:47.130Z,40.06
2023-04-15T11:10:14.007Z,38.79
2023-04-15T11:12:42.288Z,38.44
2023-04-15T11:15:35.216Z,38.86
2023-04-15T11:18:25.534Z,39.02
2023-04-15T11:21:00.758Z,39.55
2023-04-15T11:23:29.362Z,40.30
2023-04-15T11:25:58.251Z,39.80
2023-04-15T11:28:30.191Z,39.16
2023-04-15T11:30:58.253Z,39.94
2023-04-15T11:33:26.332Z,39.62
2023-04-15T11:35:55.393Z,39.55
2023-04-15T11:38:22.876Z,39.78
2023-04-15T11:40:52.080Z,39.53
2023-04-15T11:43:23.924Z,38.92
2023-04-15T11:45:53.911Z,39.79
2023-04-15T11:48:29.282Z,39.42
2023-04-15T11:50:58.250Z,38.25
2023-04-15T11:53:36.083Z,39.39
2023-04-15T11:56:03.138Z,39.52
2023-04-15T11:58:30.560Z,39.07
2023-04-15T12:01:00.420Z,38.94
2023-04-15T12:03:32.457Z,39.00
2023-04-15T12:06:19.531Z,39.01
2023-04-15T12:08:55.952Z,38.16
2023-04-15T12:11:32.619Z,37.22
2023-04-15T12:14:08.639Z,35.69
2023-04-15T12:16:49.121Z,35.13
2023-04-15T12:19:23.242Z,35.83
2023-04-15T12:21:51.246Z,34.75
2023-04-15T12:24:22.555Z,33.82
2023-04-15T12:26:55.328Z,33.64
2023-04-15T12:29:27.092Z,33.15
2023-04-15T12:31:56.287Z,33.81
2023-04-15T12:34:29.725Z,32.82
2023-04-15T12:36:58.233Z,31.09
2023-04-15T12:39:30.932Z,28.55
2023-04-15T12:41:59.098Z,29.94
2023-04-15T12:44:27.539Z,30.26
2023-04-15T12:46:55.170Z,30.16
2023-04-15T12:49:23.450Z,29.46
2023-04-15T12:51:53.211Z,30.31
2023-04-15T12:54:21.088Z,28.86
2023-04-15T12:56:50.163Z,28.59
2023-04-15T12:59:21.507Z,26.08
2023-04-15T13:01:49.330Z,26.36
2023-04-15T13:04:17.598Z,25.62
2023-04-15T13:06:44.814Z,26.33
2023-04-15T13:09:11.873Z,25.91
2023-04-15T13:11:38.923Z,26.10
2023-04-15T13:14:07.934Z,26.54
2023-04-15T13:16:35.382Z,28.03
2023-04-15T13:19:04.526Z,27.58
2023-04-15T13:21:35.992Z,28.76
2023-04-15T13:24:05.259Z,29.35
2023-04-15T13:26:32.556Z,29.77
2023-04-15T13:29:00.171Z,29.78
2023-04-15T13:31:27.688Z,29.75
2023-04-15T13:33:55.239Z,29.84
2023-04-15T13:36:22.375Z,30.40
2023-04-15T13:38:51.173Z,30.78
2023-04-15T13:41:18.994Z,31.65
2023-04-15T13:43:45.931Z,32.39
2023-04-15T13:46:13.176Z,32.19
2023-04-15T13:48:40.547Z,31.99
2023-04-15T13:51:07.719Z,33.28
2023-04-15T13:53:38.877Z,32.15
2023-04-15T13:56:09.474Z,32.39
2023-04-15T13:58:38.035Z,32.05
2023-04-15T14:01:07.291Z,34.13
2023-04-15T14:03:38.301Z,34.10
2023-04-15T14:06:06.683Z,35.09
2023-04-15T14:08:34.301Z,34.92
2023-04-15T14:11:01.557Z,33.59
2023-04-15T14:13:28.510Z,33.41
2023-04-15T14:15:57.108Z,33.27
2023-04-15T14:18:24.230Z,33.55
2023-04-15T14:20:51.163Z,33.25
2023-04-15T14:23:18.356Z,32.94
2023-04-15T14:25:53.040Z,32.88
2023-04-15T14:28:20.372Z,33.85
2023-04-15T14:30:47.665Z,34.30
2023-04-15T14:33:14.580Z,34.98
2023-04-15T14:35:42.286Z,36.55
2023-04-15T14:38:11.645Z,39.13
2023-04-15T14:40:39.356Z,41.54
2023-04-15T14:43:06.623Z,43.23
2023-04-15T14:45:33.638Z,44.56
2023-04-15T14:48:00.871Z,45.83
2023-04-15T14:50:28.507Z,47.80
2023-04-15T14:52:56.450Z,48.88
2023-04-15T14:55:23.756Z,49.08
2023-04-15T14:57:51.646Z,47.93
2023-04-15T15:00:19.808Z,47.84
2023-04-15T15:02:50.404Z,48.06
2023-04-15T15:05:18.482Z,48.12
2023-04-15T15:07:45.773Z,48.07
2023-04-15T15:10:12.967Z,47.95
2023-04-15T15:12:40.336Z,47.78
2023-04-15T15:15:19.329Z,48.50
2023-04-15T15:17:55.942Z,49.26
2023-04-15T15:20:24.792Z,51.23
2023-04-15T15:22:52.455Z,54.74
2023-04-15T15:25:19.851Z,58.58
2023-04-15T15:27:47.570Z,60.51
2023-04-15T15:30:14.738Z,62.31
2023-04-15T15:32:43.080Z,63.69
2023-04-15T15:35:11.629Z,65.20
2023-04-15T15:37:38.843Z,69.11
2023-04-15T15:40:07.100Z,70.82
2023-04-15T15:42:34.824Z,70.47
2023-04-15T15:45:04.483Z,70.52
2023-04-15T15:47:31.554Z,72.07
2023-04-15T15:49:58.778Z,71.87
2023-04-15T15:52:26.012Z,71.46
2023-04-15T15:54:53.268Z,71.79
2023-04-15T15:57:20.404Z,73.31
2023-04-15T15:59:47.767Z,77.38
2023-04-15T16:02:15.097Z,76.95
2023-04-15T16:04:43.571Z,77.21
2023-04-15T16:07:15.951Z,76.76
2023-04-15T16:09:44.034Z,76.08
2023-04-15T16:12:11.176Z,75.96
2023-04-15T16:14:38.313Z,75.78
2023-04-15T16:17:05.051Z,76.09
2023-04-15T16:19:31.944Z,75.21
2023-04-15T16:22:01.571Z,75.34
2023-04-15T16:24:29.613Z,76.61
2023-04-15T16:26:59.821Z,76.05
2023-04-15T16:29:27.048Z,76.33
2023-04-15T16:31:56.204Z,77.72
2023-04-15T16:34:23.856Z,78.96
2023-04-15T16:36:51.243Z,78.45
2023-04-15T16:39:18.405Z,78.68
2023-04-15T16:41:46.164Z,79.12
2023-04-15T16:44:13.400Z,79.41
2023-04-15T16:46:41.121Z,79.00
2023-04-15T16:49:08.560Z,78.65
2023-04-15T16:51:35.878Z,79.31
2023-04-15T16:54:03.271Z,78.99
2023-04-15T16:56:30.272Z,78.10
2023-04-15T16:58:57.413Z,77.39
2023-04-15T17:01:24.688Z,76.66
2023-04-15T17:03:54.030Z,75.71
2023-04-15T17:06:23.394Z,75.52
2023-04-15T17:08:50.755Z,75.82
2023-04-15T17:11:17.754Z,76.12
2023-04-15T17:13:44.807Z,76.37
2023-04-15T17:16:12.109Z,76.41
2023-04-15T17:18:39.233Z,77.04
2023-04-15T17:21:06.453Z,77.40
2023-04-15T17:23:33.369Z,77.29
2023-04-15T17:26:00.265Z,77.55
2023-04-15T17:28:27.996Z,78.10
2023-04-15T17:30:55.415Z,78.43
2023-04-15T17:33:55.708Z,80.20
2023-04-15T17:36:09.628Z,79.73
2023-04-15T17:38:36.483Z,80.11
2023-04-15T17:41:03.909Z,80.60
2023-04-15T17:43:32.389Z,81.15
2023-04-15T17:45:59.528Z,81.83
2023-04-15T17:48:26.907Z,83.02
2023-04-15T17:50:53.896Z,84.33
2023-04-15T17:53:20.874Z,84.96
2023-04-15T17:55:47.935Z,86.31
2023-04-15T17:58:14.866Z,86.80
2023-04-15T18:00:42.048Z,87.96
2023-04-15T18:03:09.217Z,89.01
2023-04-15T18:05:36.315Z,89.20
2023-04-15T18:08:03.456Z,88.33
2023-04-15T18:10:30.397Z,88.64
2023-04-15T18:12:57.647Z,88.26
2023-04-15T18:15:24.798Z,87.72
2023-04-15T18:17:52.049Z,88.03
2023-04-15T18:20:19.394Z,87.64
2023-04-15T18:22:46.705Z,87.60
2023-04-15T18:25:13.897Z,87.38
2023-04-15T18:27:41.077Z,86.57
2023-04-15T18:30:10.316Z,85.99
2023-04-15T18:32:38.077Z,86.14
2023-04-15T18:35:06.577Z,85.83
2023-04-15T18:37:33.778Z,86.15
2023-04-15T18:40:01.581Z,86.22
2023-04-15T18:42:28.642Z,86.14
2023-04-15T18:44:55.686Z,86.78
2023-04-15T18:47:23.831Z,86.90
2023-04-15T18:49:52.540Z,86.49
2023-04-15T18:52:19.616Z,86.54
2023-04-15T18:54:46.853Z,87.10
2023-04-15T18:57:14.095Z,88.06
2023-04-15T18:59:47.523Z,88.17
2023-04-15T19:02:14.688Z,89.01
2023-04-15T19:04:41.818Z,89.36
2023-04-15T19:07:10.055Z,90.11
2023-04-15T19:09:37.411Z,89.63
2023-04-15T19:12:04.462Z,90.07
2023-04-15T19:14:31.614Z,90.32
2023-04-15T19:16:59.084Z,90.42
2023-04-15T19:19:26.825Z,91.06
2023-04-15T19:21:54.606Z,91.68
2023-04-15T19:24:22.064Z,91.88
2023-04-15T19:26:51.540Z,91.46
2023-04-15T19:29:18.842Z,90.86
2023-04-15T19:31:46.006Z,90.52
2023-04-15T19:34:13.533Z,90.19
2023-04-15T19:36:41.321Z,89.70
2023-04-15T19:39:09.230Z,89.38
2023-04-15T19:41:36.563Z,89.94
2023-04-15T19:44:05.073Z,89.58
2023-04-15T19:46:32.678Z,89.48
2023-04-15T19:49:00.261Z,89.42
2023-04-15T19:51:28.722Z,89.21
2023-04-15T19:53:57.031Z,89.05
2023-04-15T19:56:24.643Z,88.92
2023-04-15T19:58:53.156Z,89.16
2023-04-15T20:01:21.015Z,88.78
2023-04-15T20:03:48.455Z,88.21
2023-04-15T20:06:16.275Z,88.06
2023-04-15T20:08:43.287Z,88.22
2023-04-15T20:11:10.599Z,87.90
2023-04-15T20:13:37.593Z,88.20
2023-04-15T20:16:08.006Z,89.01
2023-04-15T20:18:35.079Z,89.31
2023-04-15T20:21:02.111Z,89.36
2023-04-15T20:23:29.140Z,89.50
2023-04-15T20:25:56.402Z,89.52
2023-04-15T20:28:26.332Z,89.50
2023-04-15T20:30:54.016Z,89.61
2023-04-15T20:33:22.632Z,89.72
2023-04-15T20:35:49.569Z,89.46
2023-04-15T20:38:16.838Z,89.50
2023-04-15T20:40:43.917Z,89.27
2023-04-15T20:43:10.765Z,89.62
2023-04-15T20:45:39.255Z,90.23
2023-04-15T20:48:06.698Z,90.17
2023-04-15T20:50:33.627Z,89.76
2023-04-15T20:53:00.719Z,89.67
2023-04-15T20:55:28.992Z,89.56
2023-04-15T20:57:59.174Z,89.49
2023-04-15T21:00:26.359Z,89.28
2023-04-15T21:02:53.418Z,89.67
2023-04-15T21:05:20.444Z,89.35
2023-04-15T21:07:47.346Z,89.07
2023-04-15T21:10:14.211Z,88.37
2023-04-15T21:12:41.446Z,89.16
2023-04-15T21:15:09.367Z,89.17
2023-04-15T21:17:36.220Z,89.18
2023-04-15T21:20:03.641Z,89.07
2023-04-15T21:22:30.465Z,88.95
2023-04-15T21:24:57.654Z,89.50
2023-04-15T21:27:26.316Z,90.31
2023-04-15T21:29:53.167Z,89.79
2023-04-15T21:32:20.001Z,89.27
2023-04-15T21:34:46.972Z,88.53
2023-04-15T21:37:13.773Z,88.82
2023-04-15T21:39:40.884Z,89.32
2023-04-15T21:42:07.847Z,89.02
2023-04-15T21:44:34.752Z,89.08
2023-04-15T21:47:02.322Z,89.09
2023-04-15T21:49:29.618Z,89.13
2023-04-15T21:52:01.331Z,89.27
2023-04-15T21:54:28.716Z,89.24
2023-04-15T21:56:55.524Z,88.99
2023-04-15T21:59:22.267Z,89.23
2023-04-15T22:01:49.305Z,89.97
2023-04-15T22:04:16.699Z,90.00
2023-04-15T22:06:43.671Z,89.65
2023-04-15T22:09:16.414Z,89.32
2023-04-15T22:11:43.624Z,89.51
2023-04-15T22:14:10.951Z,89.36
2023-04-15T22:16:38.274Z,89.18
2023-04-15T22:19:05.918Z,89.24
2023-04-15T22:21:32.958Z,88.99
2023-04-15T22:24:33.924Z,89.01
2023-04-15T22:26:46.960Z,88.84
2023-04-15T22:29:13.798Z,88.97
2023-04-15T22:31:40.976Z,89.03
2023-04-15T22:34:08.783Z,89.21
2023-04-15T22:36:35.761Z,89.53
2023-04-15T22:39:03.560Z,89.54
2023-04-15T22:41:31.480Z,89.28
2023-04-15T22:43:59.044Z,89.52
2023-04-15T22:46:26.457Z,89.38
2023-04-15T22:48:54.805Z,89.38
2023-04-15T22:51:24.236Z,89.27
2023-04-15T22:53:51.910Z,89.12
2023-04-15T22:56:21.263Z,88.84
2023-04-15T22:58:49.399Z,88.79
2023-04-15T23:01:18.307Z,88.46
2023-04-15T23:03:56.719Z,88.96
2023-04-15T23:06:30.112Z,89.24
2023-04-15T23:08:57.582Z,89.33
2023-04-15T23:11:25.195Z,88.97
2023-04-15T23:13:54.409Z,89.08
2023-04-15T23:16:24.708Z,88.61
2023-04-15T23:18:51.680Z,88.71
2023-04-15T23:21:18.517Z,88.73
2023-04-15T23:23:45.663Z,89.07
2023-04-15T23:26:12.600Z,89.05
2023-04-15T23:28:39.462Z,89.12
2023-04-15T23:31:07.243Z,89.44
2023-04-15T23:33:34.294Z,89.20
2023-04-15T23:36:01.608Z,88.29
2023-04-15T23:38:28.460Z,88.11
2023-04-15T23:40:55.608Z,89.01
2023-04-15T23:43:22.785Z,89.04
2023-04-15T23:45:50.129Z,88.75
2023-04-15T23:48:17.240Z,89.22
2023-04-15T23:50:44.204Z,89.42
2023-04-15T23:53:11.334Z,89.69
2023-04-15T23:55:38.275Z,89.89
2023-04-15T23:58:05.114Z,90.01
